Station Historical Data
Daily Summary for July 3, 2017 Units:  English    Metric   Both
« Previous Day
Next Day »
Daily Weekly Monthly Yearly Custom
  High: Low: Average:
Temperature: 78.4 °F 59.5 °F 70.4 °F
Dew Point: 63.1 °F 53.7 °F 58.5 °F
Humidity: 89% 45% 67%
Wind Speed: 12.0mph 0.0mph 2.7mph
Wind Gust: 15.0mph - -
Wind- - West
Pressure: 30.07 in 29.96 in -
Precipitation: 0.00 in    
Historical Graphs
 
 
Tabular Data for July 3, 2017
Time Temperature Dew Point Pressure Wind Wind Speed Wind Gust Humidity Rainfall Rate (Hourly)
00:04 70.6 °F 62.7 °F 29.96 in WSW 5.0 mph 11.0 mph 76% 0.00 in
00:09 70.6 °F 62.7 °F 29.96 in WSW 5.0 mph 11.0 mph 76% 0.00 in
00:14 70.6 °F 62.7 °F 29.96 in WSW 5.0 mph 13.0 mph 76% 0.00 in
00:19 70.5 °F 62.6 °F 29.96 in WSW 5.0 mph 13.0 mph 76% 0.00 in
00:24 70.4 °F 62.8 °F 29.96 in WSW 3.0 mph 10.0 mph 77% 0.00 in
00:29 70.4 °F 62.8 °F 29.97 in WSW 4.0 mph 10.0 mph 77% 0.00 in
00:34 70.3 °F 63.1 °F 29.97 in West 4.0 mph 7.0 mph 78% 0.00 in
00:39 70.2 °F 63.0 °F 29.97 in Calm   6.0 mph 78% 0.00 in
00:44 70.2 °F 63.0 °F 29.97 in West 1.0 mph 4.0 mph 78% 0.00 in
00:49 70.1 °F 62.6 °F 29.97 in Calm   5.0 mph 77% 0.00 in
00:54 70.0 °F 62.5 °F 29.97 in NW 2.0 mph 4.0 mph 77% 0.00 in
00:59 70.0 °F 62.1 °F 29.97 in WNW 1.0 mph 4.0 mph 76% 0.00 in
01:04 69.9 °F 62.4 °F 29.97 in WNW 1.0 mph 4.0 mph 77% 0.00 in
01:09 69.7 °F 62.2 °F 29.97 in WNW 1.0 mph 5.0 mph 77% 0.00 in
01:14 69.6 °F 62.1 °F 29.97 in WNW 1.0 mph 5.0 mph 77% 0.00 in
01:19 69.4 °F 61.9 °F 29.97 in WNW 1.0 mph 5.0 mph 77% 0.00 in
01:24 69.3 °F 61.8 °F 29.97 in NNW 1.0 mph 4.0 mph 77% 0.00 in
01:29 69.1 °F 61.6 °F 29.97 in NW 1.0 mph 4.0 mph 77% 0.00 in
01:34 68.9 °F 61.4 °F 29.97 in West 2.0 mph 4.0 mph 77% 0.00 in
01:39 68.8 °F 60.9 °F 29.97 in Calm   3.0 mph 76% 0.00 in
01:44 68.4 °F 60.9 °F 29.97 in WNW 1.0 mph 3.0 mph 77% 0.00 in
01:49 68.0 °F 60.5 °F 29.97 in Calm   2.0 mph 77% 0.00 in
01:54 68.0 °F 60.9 °F 29.97 in Calm   2.0 mph 78% 0.00 in
01:59 67.9 °F 60.8 °F 29.98 in Calm   2.0 mph 78% 0.00 in
02:04 67.7 °F 60.6 °F 29.98 in Calm     78% 0.00 in
02:09 67.5 °F 60.8 °F 29.98 in Calm     79% 0.00 in
02:14 67.2 °F 60.5 °F 29.98 in Calm     79% 0.00 in
02:19 67.0 °F 60.3 °F 29.98 in Calm     79% 0.00 in
02:24 67.1 °F 60.4 °F 29.98 in Calm     79% 0.00 in
02:29 67.2 °F 60.5 °F 29.98 in Calm     79% 0.00 in
02:34 67.0 °F 59.9 °F 29.98 in Calm     78% 0.00 in
02:39 66.9 °F 59.8 °F 29.97 in Calm     78% 0.00 in
02:44 66.7 °F 59.6 °F 29.98 in Calm   1.0 mph 78% 0.00 in
02:49 66.5 °F 59.4 °F 29.97 in Calm     78% 0.00 in
02:54 66.4 °F 59.3 °F 29.97 in Calm     78% 0.00 in
02:59 66.6 °F 59.5 °F 29.98 in Calm     78% 0.00 in
03:04 66.4 °F 59.3 °F 29.98 in Calm     78% 0.00 in
03:09 66.4 °F 59.0 °F 29.98 in Calm     77% 0.00 in
03:14 66.4 °F 59.0 °F 29.97 in Calm     77% 0.00 in
03:19 66.2 °F 58.8 °F 29.98 in WNW 1.0 mph 2.0 mph 77% 0.00 in
03:24 66.0 °F 58.6 °F 29.97 in Calm   2.0 mph 77% 0.00 in
03:29 65.5 °F 58.5 °F 29.97 in Calm   2.0 mph 78% 0.00 in
03:34 65.5 °F 58.5 °F 29.97 in Calm   1.0 mph 78% 0.00 in
03:39 65.3 °F 58.3 °F 29.97 in Calm   1.0 mph 78% 0.00 in
03:44 65.2 °F 58.2 °F 29.97 in Calm     78% 0.00 in
03:49 64.8 °F 57.8 °F 29.97 in Calm     78% 0.00 in
03:54 64.4 °F 57.7 °F 29.97 in Calm     79% 0.00 in
03:59 64.4 °F 58.1 °F 29.97 in Calm     80% 0.00 in
04:04 64.4 °F 58.1 °F 29.98 in Calm     80% 0.00 in
04:09 64.3 °F 58.0 °F 29.97 in Calm     80% 0.00 in
04:14 63.9 °F 57.6 °F 29.98 in Calm     80% 0.00 in
04:19 63.6 °F 57.7 °F 29.98 in Calm     81% 0.00 in
04:24 63.5 °F 57.6 °F 29.98 in Calm     81% 0.00 in
04:29 63.4 °F 57.8 °F 29.98 in Calm     82% 0.00 in
04:34 63.0 °F 57.4 °F 29.98 in Calm     82% 0.00 in
04:39 62.6 °F 57.4 °F 29.98 in Calm     83% 0.00 in
04:44 62.3 °F 57.4 °F 29.99 in Calm     84% 0.00 in
04:49 62.0 °F 57.1 °F 29.99 in Calm     84% 0.00 in
04:54 61.9 °F 57.0 °F 29.99 in Calm     84% 0.00 in
04:59 61.8 °F 56.9 °F 29.99 in Calm     84% 0.00 in
05:04 61.6 °F 57.0 °F 29.99 in Calm     85% 0.00 in
05:09 61.2 °F 56.7 °F 29.99 in Calm     85% 0.00 in
05:14 60.9 °F 56.4 °F 29.99 in Calm     85% 0.00 in
05:19 60.8 °F 56.6 °F 29.99 in Calm     86% 0.00 in
05:24 60.6 °F 56.4 °F 29.99 in Calm     86% 0.00 in
05:29 60.5 °F 56.3 °F 29.99 in Calm     86% 0.00 in
05:34 60.3 °F 56.4 °F 29.99 in Calm     87% 0.00 in
05:39 60.2 °F 56.3 °F 30.00 in Calm     87% 0.00 in
05:44 60.1 °F 56.2 °F 30.00 in Calm     87% 0.00 in
05:49 59.8 °F 56.2 °F 30.00 in Calm     88% 0.00 in
05:54 59.7 °F 56.1 °F 30.00 in Calm     88% 0.00 in
05:59 59.5 °F 55.9 °F 30.00 in Calm     88% 0.00 in
06:04 59.5 °F 55.9 °F 30.00 in Calm     88% 0.00 in
06:09 59.5 °F 55.9 °F 30.01 in Calm     88% 0.00 in
06:14 59.6 °F 56.0 °F 30.01 in Calm     88% 0.00 in
06:19 59.8 °F 56.6 °F 30.01 in Calm     89% 0.00 in
06:24 60.0 °F 56.7 °F 30.01 in Calm     89% 0.00 in
06:29 60.0 °F 56.7 °F 30.01 in Calm     89% 0.00 in
06:34 60.5 °F 57.2 °F 30.01 in Calm     89% 0.00 in
06:39 60.8 °F 57.2 °F 30.01 in Calm     88% 0.00 in
06:44 61.3 °F 58.0 °F 30.01 in Calm     89% 0.00 in
06:49 62.1 °F 58.5 °F 30.01 in Calm     88% 0.00 in
06:54 62.7 °F 58.5 °F 30.01 in Calm     86% 0.00 in
06:59 63.3 °F 58.7 °F 30.01 in Calm     85% 0.00 in
07:04 63.8 °F 58.9 °F 30.01 in Calm     84% 0.00 in
07:09 64.3 °F 59.0 °F 30.02 in Calm     83% 0.00 in
07:14 64.8 °F 58.8 °F 30.02 in West 4.0 mph 5.0 mph 81% 0.00 in
07:15 64.8 °F 58.8 °F 30.02 in WNW 1.0 mph 5.0 mph 81% 0.00 in
07:24 65.5 °F 58.5 °F 30.02 in West 2.0 mph 5.0 mph 78% 0.00 in
07:29 65.7 °F 58.3 °F 30.02 in Calm   6.0 mph 77% 0.00 in
07:34 66.0 °F 58.6 °F 30.02 in WNW 2.0 mph 4.0 mph 77% 0.00 in
07:39 66.3 °F 58.1 °F 30.02 in NW 3.0 mph 6.0 mph 75% 0.00 in
07:44 66.7 °F 58.5 °F 30.02 in NW 4.0 mph 4.0 mph 75% 0.00 in
07:49 66.9 °F 58.0 °F 30.03 in WNW 4.0 mph 8.0 mph 73% 0.00 in
07:54 67.1 °F 57.4 °F 30.03 in WNW 4.0 mph 8.0 mph 71% 0.00 in
07:59 67.6 °F 57.9 °F 30.02 in WNW 3.0 mph 7.0 mph 71% 0.00 in
08:04 67.9 °F 58.1 °F 30.03 in West 3.0 mph 7.0 mph 71% 0.00 in
08:09 68.6 °F 58.0 °F 30.03 in WNW 2.0 mph 7.0 mph 69% 0.00 in
08:14 69.2 °F 56.9 °F 30.03 in NW 1.0 mph 4.0 mph 65% 0.00 in
08:19 68.8 °F 56.1 °F 30.03 in NW 2.0 mph 5.0 mph 64% 0.00 in
08:24 69.0 °F 56.7 °F 30.03 in North 4.0 mph 4.0 mph 65% 0.00 in
08:29 69.3 °F 56.6 °F 30.03 in NW 2.0 mph 4.0 mph 64% 0.00 in
08:34 69.5 °F 56.3 °F 30.03 in WNW 3.0 mph 4.0 mph 63% 0.00 in
08:39 69.7 °F 57.0 °F 30.03 in WNW 4.0 mph 5.0 mph 64% 0.00 in
08:44 69.6 °F 57.3 °F 30.03 in WNW 2.0 mph 6.0 mph 65% 0.00 in
08:49 69.9 °F 57.2 °F 30.03 in NNW 3.0 mph 6.0 mph 64% 0.00 in
08:54 70.1 °F 56.9 °F 30.04 in WNW 3.0 mph 7.0 mph 63% 0.00 in
08:59 70.3 °F 56.7 °F 30.04 in WNW 4.0 mph 7.0 mph 62% 0.00 in
09:04 70.5 °F 57.3 °F 30.04 in WNW 3.0 mph 7.0 mph 63% 0.00 in
09:09 70.4 °F 57.2 °F 30.04 in WNW 4.0 mph 6.0 mph 63% 0.00 in
09:14 70.7 °F 57.0 °F 30.04 in NW 1.0 mph 6.0 mph 62% 0.00 in
09:19 71.0 °F 56.4 °F 30.04 in WNW 3.0 mph 8.0 mph 60% 0.00 in
09:24 71.0 °F 57.3 °F 30.04 in NW 3.0 mph 8.0 mph 62% 0.00 in
09:29 71.4 °F 57.2 °F 30.04 in WNW 2.0 mph 8.0 mph 61% 0.00 in
09:34 71.3 °F 56.2 °F 30.04 in West 2.0 mph 7.0 mph 59% 0.00 in
09:39 71.9 °F 58.2 °F 30.04 in West 4.0 mph 7.0 mph 62% 0.00 in
09:44 72.5 °F 56.4 °F 30.04 in WNW 4.0 mph 6.0 mph 57% 0.00 in
09:49 71.9 °F 55.8 °F 30.04 in NW 3.0 mph 6.0 mph 57% 0.00 in
09:54 72.1 °F 57.0 °F 30.04 in WNW 4.0 mph 6.0 mph 59% 0.00 in
09:59 72.4 °F 55.8 °F 30.04 in West 4.0 mph 10.0 mph 56% 0.00 in
10:04 72.6 °F 57.0 °F 30.03 in WSW 3.0 mph 8.0 mph 58% 0.00 in
10:09 72.6 °F 56.0 °F 30.03 in West 3.0 mph 7.0 mph 56% 0.00 in
10:14 73.1 °F 55.5 °F 30.04 in WNW 4.0 mph 8.0 mph 54% 0.00 in
10:19 73.0 °F 55.9 °F 30.03 in WNW 3.0 mph 8.0 mph 55% 0.00 in
10:24 73.4 °F 57.7 °F 30.03 in West 3.0 mph 9.0 mph 58% 0.00 in
10:29 73.7 °F 57.0 °F 30.03 in West 3.0 mph 9.0 mph 56% 0.00 in
10:34 72.9 °F 55.8 °F 30.03 in West 3.0 mph 7.0 mph 55% 0.00 in
10:39 73.7 °F 55.5 °F 30.03 in WSW 3.0 mph 8.0 mph 53% 0.00 in
10:44 73.9 °F 55.7 °F 30.03 in West 4.0 mph 8.0 mph 53% 0.00 in
10:49 73.9 °F 56.7 °F 30.03 in WNW 4.0 mph 10.0 mph 55% 0.00 in
10:54 74.4 °F 57.7 °F 30.03 in West 4.0 mph 8.0 mph 56% 0.00 in
10:59 75.0 °F 56.2 °F 30.03 in West 6.0 mph 9.0 mph 52% 0.00 in
11:04 75.0 °F 56.2 °F 30.03 in WNW 5.0 mph 9.0 mph 52% 0.00 in
11:09 74.8 °F 55.5 °F 30.04 in WSW 5.0 mph 10.0 mph 51% 0.00 in
11:14 74.5 °F 56.2 °F 30.04 in SW 5.0 mph 11.0 mph 53% 0.00 in
11:19 74.9 °F 54.4 °F 30.04 in West 6.0 mph 11.0 mph 49% 0.00 in
11:24 75.2 °F 54.7 °F 30.04 in West 6.0 mph 14.0 mph 49% 0.00 in
11:29 76.2 °F 55.6 °F 30.04 in West 6.0 mph 14.0 mph 49% 0.00 in
11:34 75.3 °F 54.8 °F 30.04 in West 6.0 mph 13.0 mph 49% 0.00 in
11:39 75.4 °F 54.3 °F 30.04 in West 6.0 mph 15.0 mph 48% 0.00 in
11:44 75.2 °F 55.3 °F 30.04 in West 4.0 mph 13.0 mph 50% 0.00 in
11:49 75.3 °F 55.4 °F 30.04 in West 7.0 mph 13.0 mph 50% 0.00 in
11:54 75.9 °F 55.9 °F 30.04 in West 6.0 mph 12.0 mph 50% 0.00 in
11:59 76.4 °F 54.7 °F 30.04 in West 7.0 mph 8.0 mph 47% 0.00 in
12:04 76.5 °F 57.0 °F 30.04 in SW 7.0 mph 12.0 mph 51% 0.00 in
12:09 76.6 °F 53.7 °F 30.04 in WNW 2.0 mph 9.0 mph 45% 0.00 in
12:14 76.7 °F 54.4 °F 30.04 in WNW 4.0 mph 13.0 mph 46% 0.00 in
12:19 77.0 °F 54.6 °F 30.03 in WNW 5.0 mph 13.0 mph 46% 0.00 in
12:24 77.4 °F 55.0 °F 30.03 in WNW 5.0 mph 12.0 mph 46% 0.00 in
12:29 77.0 °F 58.6 °F 30.03 in WNW 5.0 mph 15.0 mph 53% 0.00 in
12:34 76.9 °F 54.5 °F 30.04 in WNW 5.0 mph 15.0 mph 46% 0.00 in
12:39 77.0 °F 56.4 °F 30.03 in WNW 6.0 mph 12.0 mph 49% 0.00 in
12:44 77.5 °F 59.5 °F 30.03 in West 4.0 mph 11.0 mph 54% 0.00 in
12:49 76.8 °F 57.3 °F 30.03 in West 2.0 mph 12.0 mph 51% 0.00 in
12:54 76.1 °F 56.1 °F 30.03 in West 4.0 mph 12.0 mph 50% 0.00 in
12:59 76.0 °F 58.7 °F 30.03 in West 4.0 mph 10.0 mph 55% 0.00 in
13:04 76.9 °F 56.8 °F 30.03 in SW 5.0 mph 10.0 mph 50% 0.00 in
13:09 76.4 °F 58.5 °F 30.03 in SW 8.0 mph 13.0 mph 54% 0.00 in
13:14 77.1 °F 57.6 °F 30.03 in SW 6.0 mph 12.0 mph 51% 0.00 in
13:19 76.7 °F 57.2 °F 30.03 in WSW 4.0 mph 14.0 mph 51% 0.00 in
13:24 77.6 °F 59.1 °F 30.03 in SW 5.0 mph 14.0 mph 53% 0.00 in
13:29 77.4 °F 58.9 °F 30.03 in SW 5.0 mph 13.0 mph 53% 0.00 in
13:34 77.4 °F 58.9 °F 30.03 in SW 7.0 mph 9.0 mph 53% 0.00 in
13:39 77.4 °F 58.9 °F 30.03 in SW 8.0 mph 11.0 mph 53% 0.00 in
13:44 77.7 °F 59.2 °F 30.03 in SW 6.0 mph 10.0 mph 53% 0.00 in
13:49 77.1 °F 58.6 °F 30.03 in SW 7.0 mph 11.0 mph 53% 0.00 in
13:54 76.7 °F 59.3 °F 30.03 in SW 6.0 mph 12.0 mph 55% 0.00 in
13:59 77.2 °F 59.3 °F 30.03 in SW 5.0 mph 12.0 mph 54% 0.00 in
14:04 77.8 °F 59.3 °F 30.02 in SW 5.0 mph 11.0 mph 53% 0.00 in
14:09 77.3 °F 59.4 °F 30.03 in South 5.0 mph 13.0 mph 54% 0.00 in
14:14 77.5 °F 59.0 °F 30.02 in SSW 5.0 mph 9.0 mph 53% 0.00 in
14:19 77.6 °F 60.2 °F 30.03 in SW 5.0 mph 9.0 mph 55% 0.00 in
14:24 77.8 °F 58.8 °F 30.03 in SW 5.0 mph 11.0 mph 52% 0.00 in
14:29 77.2 °F 59.3 °F 30.02 in SW 5.0 mph 11.0 mph 54% 0.00 in
14:34 75.8 °F 58.5 °F 30.03 in SW 5.0 mph 12.0 mph 55% 0.00 in
14:39 75.9 °F 59.1 °F 30.03 in West 6.0 mph 9.0 mph 56% 0.00 in
14:44 76.2 °F 60.3 °F 30.02 in SW 6.0 mph 11.0 mph 58% 0.00 in
14:49 77.2 °F 59.3 °F 30.03 in WSW 6.0 mph 11.0 mph 54% 0.00 in
14:54 77.5 °F 59.5 °F 30.03 in WSW 6.0 mph 12.0 mph 54% 0.00 in
14:59 78.0 °F 58.9 °F 30.02 in WSW 5.0 mph 12.0 mph 52% 0.00 in
15:04 76.8 °F 58.9 °F 30.03 in WSW 5.0 mph 12.0 mph 54% 0.00 in
15:09 77.5 °F 58.5 °F 30.03 in WSW 4.0 mph 9.0 mph 52% 0.00 in
15:14 77.6 °F 59.6 °F 30.03 in SW 6.0 mph 8.0 mph 54% 0.00 in
15:19 77.4 °F 58.9 °F 30.03 in SW 6.0 mph 13.0 mph 53% 0.00 in
15:24 78.1 °F 59.6 °F 30.03 in SW 5.0 mph 13.0 mph 53% 0.00 in
15:29 78.4 °F 58.2 °F 30.03 in WNW 5.0 mph 9.0 mph 50% 0.00 in
15:34 77.6 °F 59.1 °F 30.02 in WSW 5.0 mph 15.0 mph 53% 0.00 in
15:39 78.2 °F 59.1 °F 30.02 in SW 10.0 mph 12.0 mph 52% 0.00 in
15:44 77.9 °F 59.9 °F 30.02 in WSW 3.0 mph 12.0 mph 54% 0.00 in
15:49 77.6 °F 59.6 °F 30.02 in SW 5.0 mph 10.0 mph 54% 0.00 in
15:54 77.6 °F 59.6 °F 30.02 in WSW 6.0 mph 12.0 mph 54% 0.00 in
15:59 77.2 °F 58.2 °F 30.02 in WSW 5.0 mph 12.0 mph 52% 0.00 in
16:04 76.3 °F 58.4 °F 30.02 in West 5.0 mph 10.0 mph 54% 0.00 in
16:09 76.4 °F 59.5 °F 30.02 in West 3.0 mph 10.0 mph 56% 0.00 in
16:14 76.8 °F 59.4 °F 30.02 in WSW 3.0 mph 10.0 mph 55% 0.00 in
16:19 76.9 °F 59.0 °F 30.02 in West 4.0 mph 10.0 mph 54% 0.00 in
16:24 77.1 °F 59.7 °F 30.02 in WSW 5.0 mph 10.0 mph 55% 0.00 in
16:29 76.3 °F 59.4 °F 30.02 in West 7.0 mph 12.0 mph 56% 0.00 in
16:34 75.6 °F 59.8 °F 30.02 in West 4.0 mph 8.0 mph 58% 0.00 in
16:39 75.2 °F 57.9 °F 30.02 in SW 12.0 mph 12.0 mph 55% 0.00 in
16:44 75.3 °F 58.0 °F 30.02 in SW 6.0 mph 12.0 mph 55% 0.00 in
16:49 75.9 °F 57.0 °F 30.02 in SW 6.0 mph 12.0 mph 52% 0.00 in
16:54 76.5 °F 58.6 °F 30.02 in SW 6.0 mph 10.0 mph 54% 0.00 in
16:59 76.6 °F 58.7 °F 30.02 in SW 6.0 mph 11.0 mph 54% 0.00 in
17:04 76.0 °F 57.1 °F 30.02 in SW 6.0 mph 13.0 mph 52% 0.00 in
17:09 76.0 °F 59.2 °F 30.02 in SW 6.0 mph 13.0 mph 56% 0.00 in
17:14 76.1 °F 58.2 °F 30.02 in WSW 8.0 mph 8.0 mph 54% 0.00 in
17:19 75.7 °F 58.4 °F 30.02 in WSW 5.0 mph 13.0 mph 55% 0.00 in
17:24 76.0 °F 58.7 °F 30.02 in WSW 3.0 mph 13.0 mph 55% 0.00 in
17:29 76.2 °F 60.3 °F 30.02 in SSW 8.0 mph 10.0 mph 58% 0.00 in
17:34 75.5 °F 59.7 °F 30.02 in SW 4.0 mph 11.0 mph 58% 0.00 in
17:39 75.3 °F 59.5 °F 30.02 in West 2.0 mph 9.0 mph 58% 0.00 in
17:44 75.4 °F 58.6 °F 30.02 in WSW 5.0 mph 12.0 mph 56% 0.00 in
17:49 75.1 °F 58.8 °F 30.02 in WSW 6.0 mph 13.0 mph 57% 0.00 in
17:54 75.9 °F 59.6 °F 30.02 in WSW 6.0 mph 13.0 mph 57% 0.00 in
17:59 75.5 °F 59.7 °F 30.02 in WSW 5.0 mph 10.0 mph 58% 0.00 in
18:04 75.1 °F 59.8 °F 30.02 in WSW 6.0 mph 10.0 mph 59% 0.00 in
18:09 75.4 °F 60.1 °F 30.02 in West 5.0 mph 10.0 mph 59% 0.00 in
18:14 75.1 °F 59.8 °F 30.02 in West 5.0 mph 10.0 mph 59% 0.00 in
18:19 75.1 °F 59.8 °F 30.02 in WSW 5.0 mph 10.0 mph 59% 0.00 in
18:24 75.2 °F 60.4 °F 30.02 in WSW 8.0 mph 9.0 mph 60% 0.00 in
18:29 75.2 °F 59.9 °F 30.02 in WNW 5.0 mph 10.0 mph 59% 0.00 in
18:34 74.7 °F 59.4 °F 30.02 in West 8.0 mph 11.0 mph 59% 0.00 in
18:39 74.1 °F 58.9 °F 30.02 in WNW 6.0 mph 10.0 mph 59% 0.00 in
18:44 73.7 °F 59.4 °F 30.02 in West 4.0 mph 10.0 mph 61% 0.00 in
18:49 73.1 °F 59.3 °F 30.02 in WSW 5.0 mph 10.0 mph 62% 0.00 in
18:54 72.8 °F 59.0 °F 30.02 in WSW 4.0 mph 10.0 mph 62% 0.00 in
18:59 72.5 °F 59.6 °F 30.02 in West 3.0 mph 7.0 mph 64% 0.00 in
19:04 73.1 °F 59.8 °F 30.02 in WSW 4.0 mph 7.0 mph 63% 0.00 in
19:09 73.2 °F 59.4 °F 30.02 in WSW 1.0 mph 9.0 mph 62% 0.00 in
19:14 73.1 °F 59.8 °F 30.02 in WSW 5.0 mph 10.0 mph 63% 0.00 in
19:19 72.9 °F 59.6 °F 30.02 in WSW 5.0 mph 10.0 mph 63% 0.00 in
19:24 73.0 °F 59.2 °F 30.02 in WSW 4.0 mph 7.0 mph 62% 0.00 in
19:29 72.8 °F 59.0 °F 30.02 in WSW 4.0 mph 9.0 mph 62% 0.00 in
19:34 72.7 °F 59.4 °F 30.03 in WSW 4.0 mph 9.0 mph 63% 0.00 in
19:39 72.4 °F 59.1 °F 30.02 in WSW 4.0 mph 9.0 mph 63% 0.00 in
19:44 72.4 °F 59.5 °F 30.02 in West 6.0 mph 8.0 mph 64% 0.00 in
19:49 72.2 °F 59.3 °F 30.02 in SW 4.0 mph 9.0 mph 64% 0.00 in
19:54 72.1 °F 59.2 °F 30.02 in Calm   6.0 mph 64% 0.00 in
19:59 72.2 °F 59.8 °F 30.03 in West 3.0 mph 7.0 mph 65% 0.00 in
20:04 72.1 °F 59.7 °F 30.03 in WSW 1.0 mph 6.0 mph 65% 0.00 in
20:09 72.0 °F 59.2 °F 30.03 in WSW 6.0 mph 6.0 mph 64% 0.00 in
20:14 71.8 °F 59.0 °F 30.03 in SW 2.0 mph 6.0 mph 64% 0.00 in
20:19 71.6 °F 58.8 °F 30.03 in SW 2.0 mph 7.0 mph 64% 0.00 in
20:24 71.4 °F 59.0 °F 30.03 in SW 3.0 mph 7.0 mph 65% 0.00 in
20:29 71.3 °F 59.4 °F 30.03 in SW 3.0 mph 5.0 mph 66% 0.00 in
20:34 71.2 °F 59.3 °F 30.03 in WSW 3.0 mph 5.0 mph 66% 0.00 in
20:39 71.0 °F 59.1 °F 30.03 in Calm   5.0 mph 66% 0.00 in
20:44 70.8 °F 59.3 °F 30.04 in West 1.0 mph 2.0 mph 67% 0.00 in
20:49 70.7 °F 59.2 °F 30.04 in WSW 1.0 mph 3.0 mph 67% 0.00 in
20:54 70.6 °F 59.1 °F 30.04 in WSW 2.0 mph 4.0 mph 67% 0.00 in
20:59 70.5 °F 59.0 °F 30.04 in WSW 2.0 mph 5.0 mph 67% 0.00 in
21:04 70.4 °F 59.3 °F 30.04 in WSW 3.0 mph 5.0 mph 68% 0.00 in
21:09 70.2 °F 59.1 °F 30.04 in WSW 2.0 mph 4.0 mph 68% 0.00 in
21:14 69.9 °F 59.3 °F 30.04 in Calm   4.0 mph 69% 0.00 in
21:19 69.6 °F 59.4 °F 30.04 in WSW 1.0 mph 4.0 mph 70% 0.00 in
21:24 69.4 °F 59.2 °F 30.04 in WSW 1.0 mph 3.0 mph 70% 0.00 in
21:29 69.3 °F 59.1 °F 30.05 in WSW 1.0 mph 3.0 mph 70% 0.00 in
21:34 68.9 °F 59.1 °F 30.05 in WSW 1.0 mph 2.0 mph 71% 0.00 in
21:39 68.6 °F 59.2 °F 30.05 in Calm   3.0 mph 72% 0.00 in
21:44 68.5 °F 59.1 °F 30.05 in Calm   2.0 mph 72% 0.00 in
21:49 68.2 °F 58.8 °F 30.05 in Calm   2.0 mph 72% 0.00 in
21:54 67.9 °F 58.9 °F 30.05 in Calm     73% 0.00 in
21:59 67.7 °F 59.1 °F 30.05 in Calm     74% 0.00 in
22:04 67.5 °F 58.9 °F 30.06 in Calm     74% 0.00 in
22:09 67.2 °F 59.0 °F 30.06 in Calm     75% 0.00 in
22:14 67.2 °F 59.0 °F 30.06 in Calm     75% 0.00 in
22:19 67.0 °F 58.8 °F 30.06 in Calm     75% 0.00 in
22:24 66.8 °F 59.0 °F 30.06 in Calm     76% 0.00 in
22:29 66.6 °F 58.8 °F 30.06 in Calm     76% 0.00 in
22:34 66.5 °F 58.7 °F 30.06 in Calm     76% 0.00 in
22:39 66.4 °F 59.0 °F 30.06 in Calm     77% 0.00 in
22:44 66.2 °F 58.8 °F 30.06 in Calm     77% 0.00 in
22:49 66.0 °F 58.6 °F 30.06 in Calm     77% 0.00 in
22:54 65.8 °F 58.7 °F 30.06 in Calm     78% 0.00 in
22:59 65.8 °F 58.7 °F 30.06 in Calm     78% 0.00 in
23:04 65.6 °F 58.6 °F 30.06 in Calm     78% 0.00 in
23:09 65.3 °F 58.6 °F 30.06 in Calm     79% 0.00 in
23:14 65.3 °F 58.6 °F 30.06 in Calm     79% 0.00 in
23:19 64.9 °F 58.2 °F 30.06 in Calm     79% 0.00 in
23:24 64.7 °F 58.4 °F 30.06 in Calm     80% 0.00 in
23:29 64.6 °F 58.3 °F 30.06 in Calm     80% 0.00 in
23:34 64.5 °F 58.5 °F 30.06 in Calm     81% 0.00 in
23:39 64.3 °F 58.7 °F 30.07 in Calm     82% 0.00 in
23:44 64.2 °F 58.6 °F 30.07 in Calm     82% 0.00 in
23:49 64.1 °F 58.8 °F 30.06 in Calm     83% 0.00 in
23:54 63.9 °F 58.6 °F 30.06 in Calm     83% 0.00 in
23:59 63.7 °F 58.4 °F 30.06 in Calm     83% 0.00 in
Buffalo, New York, USA
Compliments of Weather Underground - 2.5 mb